sensor_id;sensor_type;location;lat;lon;timestamp;P1;P2;P0
77794;PMS5003;66985;45.778;3.090;2023-02-08T00:01:42;19;18;
77794;PMS5003;66985;45.778;3.090;2023-02-08T00:04:07;17;14;
77794;PMS5003;66985;45.778;3.090;2023-02-08T00:06:33;14;13;
77794;PMS5003;66985;45.778;3.090;2023-02-08T00:08:58;13;12;
77794;PMS5003;66985;45.778;3.090;2023-02-08T00:11:24;15;14;
77794;PMS5003;66985;45.778;3.090;2023-02-08T00:13:49;17;17;
77794;PMS5003;66985;45.778;3.090;2023-02-08T00:16:15;16;11;
77794;PMS5003;66985;45.778;3.090;2023-02-08T00:18:40;16;15;
77794;PMS5003;66985;45.778;3.090;2023-02-08T00:21:06;13;13;
77794;PMS5003;66985;45.778;3.090;2023-02-08T00:23:31;13;13;
77794;PMS5003;66985;45.778;3.090;2023-02-08T00:25:56;14;14;
77794;PMS5003;66985;45.778;3.090;2023-02-08T00:28:22;13;13;
77794;PMS5003;66985;45.778;3.090;2023-02-08T00:30:47;15;13;
77794;PMS5003;66985;45.778;3.090;2023-02-08T00:33:12;17;15;
77794;PMS5003;66985;45.778;3.090;2023-02-08T00:35:38;12;12;
77794;PMS5003;66985;45.778;3.090;2023-02-08T00:38:03;12;12;
77794;PMS5003;66985;45.778;3.090;2023-02-08T00:40:29;12;12;
77794;PMS5003;66985;45.778;3.090;2023-02-08T00:42:54;14;14;
77794;PMS5003;66985;45.778;3.090;2023-02-08T00:45:20;13;13;
77794;PMS5003;66985;45.778;3.090;2023-02-08T00:47:45;14;13;
77794;PMS5003;66985;45.778;3.090;2023-02-08T00:50:11;13;12;
77794;PMS5003;66985;45.778;3.090;2023-02-08T00:52:37;16;14;
77794;PMS5003;66985;45.778;3.090;2023-02-08T00:55:03;13;12;
77794;PMS5003;66985;45.778;3.090;2023-02-08T00:57:28;10;10;
77794;PMS5003;66985;45.778;3.090;2023-02-08T00:59:53;14;13;
77794;PMS5003;66985;45.778;3.090;2023-02-08T01:02:18;11;11;
77794;PMS5003;66985;45.778;3.090;2023-02-08T01:04:44;13;11;
77794;PMS5003;66985;45.778;3.090;2023-02-08T01:07:09;13;12;
77794;PMS5003;66985;45.778;3.090;2023-02-08T01:09:34;16;15;
77794;PMS5003;66985;45.778;3.090;2023-02-08T01:12:00;15;13;
77794;PMS5003;66985;45.778;3.090;2023-02-08T01:14:26;14;14;
77794;PMS5003;66985;45.778;3.090;2023-02-08T01:16:51;12;12;
77794;PMS5003;66985;45.778;3.090;2023-02-08T01:19:17;13;13;
77794;PMS5003;66985;45.778;3.090;2023-02-08T01:21:42;12;11;
77794;PMS5003;66985;45.778;3.090;2023-02-08T01:24:07;11;10;
77794;PMS5003;66985;45.778;3.090;2023-02-08T01:26:33;12;11;
77794;PMS5003;66985;45.778;3.090;2023-02-08T01:28:59;11;11;
77794;PMS5003;66985;45.778;3.090;2023-02-08T01:31:25;11;11;
77794;PMS5003;66985;45.778;3.090;2023-02-08T01:33:49;11;11;
77794;PMS5003;66985;45.778;3.090;2023-02-08T01:36:15;11;11;
77794;PMS5003;66985;45.778;3.090;2023-02-08T01:38:40;12;10;
77794;PMS5003;66985;45.778;3.090;2023-02-08T01:41:06;11;11;
77794;PMS5003;66985;45.778;3.090;2023-02-08T01:43:32;12;11;
77794;PMS5003;66985;45.778;3.090;2023-02-08T01:45:57;12;11;
77794;PMS5003;66985;45.778;3.090;2023-02-08T01:48:23;9;9;
77794;PMS5003;66985;45.778;3.090;2023-02-08T01:50:50;11;9;
77794;PMS5003;66985;45.778;3.090;2023-02-08T01:53:13;10;10;
77794;PMS5003;66985;45.778;3.090;2023-02-08T01:55:41;9;9;
77794;PMS5003;66985;45.778;3.090;2023-02-08T01:58:05;11;11;
77794;PMS5003;66985;45.778;3.090;2023-02-08T02:00:30;10;10;
77794;PMS5003;66985;45.778;3.090;2023-02-08T02:02:56;10;10;
77794;PMS5003;66985;45.778;3.090;2023-02-08T02:05:21;8;8;
77794;PMS5003;66985;45.778;3.090;2023-02-08T02:07:47;9;9;
77794;PMS5003;66985;45.778;3.090;2023-02-08T02:10:13;13;11;
77794;PMS5003;66985;45.778;3.090;2023-02-08T02:12:37;9;8;
77794;PMS5003;66985;45.778;3.090;2023-02-08T02:15:03;10;10;
77794;PMS5003;66985;45.778;3.090;2023-02-08T02:17:28;12;11;
77794;PMS5003;66985;45.778;3.090;2023-02-08T02:20:05;9;9;
77794;PMS5003;66985;45.778;3.090;2023-02-08T02:22:25;12;12;
77794;PMS5003;66985;45.778;3.090;2023-02-08T02:25:22;9;8;
77794;PMS5003;66985;45.778;3.090;2023-02-08T02:27:13;9;9;
77794;PMS5003;66985;45.778;3.090;2023-02-08T02:29:39;9;8;
77794;PMS5003;66985;45.778;3.090;2023-02-08T02:32:03;9;9;
77794;PMS5003;66985;45.778;3.090;2023-02-08T02:34:29;13;12;
77794;PMS5003;66985;45.778;3.090;2023-02-08T02:36:52;8;8;
77794;PMS5003;66985;45.778;3.090;2023-02-08T02:39:19;9;9;
77794;PMS5003;66985;45.778;3.090;2023-02-08T02:41:47;8;8;
77794;PMS5003;66985;45.778;3.090;2023-02-08T02:44:09;9;9;
77794;PMS5003;66985;45.778;3.090;2023-02-08T02:46:35;11;10;
77794;PMS5003;66985;45.778;3.090;2023-02-08T02:49:01;8;8;
77794;PMS5003;66985;45.778;3.090;2023-02-08T02:51:25;10;9;
77794;PMS5003;66985;45.778;3.090;2023-02-08T02:53:51;11;11;
77794;PMS5003;66985;45.778;3.090;2023-02-08T02:56:16;8;8;
77794;PMS5003;66985;45.778;3.090;2023-02-08T02:58:41;11;10;
77794;PMS5003;66985;45.778;3.090;2023-02-08T03:01:07;11;8;
77794;PMS5003;66985;45.778;3.090;2023-02-08T03:03:33;9;9;
77794;PMS5003;66985;45.778;3.090;2023-02-08T03:05:59;11;9;
77794;PMS5003;66985;45.778;3.090;2023-02-08T03:08:29;10;10;
77794;PMS5003;66985;45.778;3.090;2023-02-08T03:10:52;10;10;
77794;PMS5003;66985;45.778;3.090;2023-02-08T03:13:17;10;9;
77794;PMS5003;66985;45.778;3.090;2023-02-08T03:15:42;10;10;
77794;PMS5003;66985;45.778;3.090;2023-02-08T03:18:10;12;12;
77794;PMS5003;66985;45.778;3.090;2023-02-08T03:20:31;10;8;
77794;PMS5003;66985;45.778;3.090;2023-02-08T03:22:58;8;8;
77794;PMS5003;66985;45.778;3.090;2023-02-08T03:25:22;11;11;
77794;PMS5003;66985;45.778;3.090;2023-02-08T03:27:49;11;11;
77794;PMS5003;66985;45.778;3.090;2023-02-08T03:30:14;11;10;
77794;PMS5003;66985;45.778;3.090;2023-02-08T03:32:39;10;9;
77794;PMS5003;66985;45.778;3.090;2023-02-08T03:35:04;11;9;
77794;PMS5003;66985;45.778;3.090;2023-02-08T03:37:30;6;6;
77794;PMS5003;66985;45.778;3.090;2023-02-08T03:39:57;6;6;
77794;PMS5003;66985;45.778;3.090;2023-02-08T03:42:22;8;7;
77794;PMS5003;66985;45.778;3.090;2023-02-08T03:44:47;8;8;
77794;PMS5003;66985;45.778;3.090;2023-02-08T03:47:13;7;7;
77794;PMS5003;66985;45.778;3.090;2023-02-08T03:49:38;8;8;
77794;PMS5003;66985;45.778;3.090;2023-02-08T03:52:04;6;6;
77794;PMS5003;66985;45.778;3.090;2023-02-08T03:54:30;10;10;
77794;PMS5003;66985;45.778;3.090;2023-02-08T03:56:55;10;9;
77794;PMS5003;66985;45.778;3.090;2023-02-08T03:59:20;7;7;
77794;PMS5003;66985;45.778;3.090;2023-02-08T04:01:46;10;10;
77794;PMS5003;66985;45.778;3.090;2023-02-08T04:04:11;8;8;
77794;PMS5003;66985;45.778;3.090;2023-02-08T04:06:36;9;9;
77794;PMS5003;66985;45.778;3.090;2023-02-08T04:09:02;7;7;
77794;PMS5003;66985;45.778;3.090;2023-02-08T04:11:27;8;8;
77794;PMS5003;66985;45.778;3.090;2023-02-08T04:13:53;9;8;
77794;PMS5003;66985;45.778;3.090;2023-02-08T04:16:18;6;6;
77794;PMS5003;66985;45.778;3.090;2023-02-08T04:18:44;8;8;
77794;PMS5003;66985;45.778;3.090;2023-02-08T04:21:09;7;7;
77794;PMS5003;66985;45.778;3.090;2023-02-08T04:23:35;7;7;
77794;PMS5003;66985;45.778;3.090;2023-02-08T04:26:00;11;9;
77794;PMS5003;66985;45.778;3.090;2023-02-08T04:28:26;9;7;
77794;PMS5003;66985;45.778;3.090;2023-02-08T04:30:53;10;10;
77794;PMS5003;66985;45.778;3.090;2023-02-08T04:33:17;11;9;
77794;PMS5003;66985;45.778;3.090;2023-02-08T04:35:42;7;7;
77794;PMS5003;66985;45.778;3.090;2023-02-08T04:38:08;11;9;
77794;PMS5003;66985;45.778;3.090;2023-02-08T04:40:33;10;10;
77794;PMS5003;66985;45.778;3.090;2023-02-08T04:42:59;8;8;
77794;PMS5003;66985;45.778;3.090;2023-02-08T04:45:24;10;10;
77794;PMS5003;66985;45.778;3.090;2023-02-08T04:47:50;7;7;
77794;PMS5003;66985;45.778;3.090;2023-02-08T04:50:15;7;7;
77794;PMS5003;66985;45.778;3.090;2023-02-08T04:52:41;12;12;
77794;PMS5003;66985;45.778;3.090;2023-02-08T04:55:07;9;8;
77794;PMS5003;66985;45.778;3.090;2023-02-08T04:57:33;9;9;
77794;PMS5003;66985;45.778;3.090;2023-02-08T04:59:58;9;9;
77794;PMS5003;66985;45.778;3.090;2023-02-08T05:02:24;9;8;
77794;PMS5003;66985;45.778;3.090;2023-02-08T05:04:49;8;8;
77794;PMS5003;66985;45.778;3.090;2023-02-08T05:07:15;8;8;
77794;PMS5003;66985;45.778;3.090;2023-02-08T05:09:40;9;8;
77794;PMS5003;66985;45.778;3.090;2023-02-08T05:12:05;9;9;
77794;PMS5003;66985;45.778;3.090;2023-02-08T05:14:31;11;11;
77794;PMS5003;66985;45.778;3.090;2023-02-08T05:16:56;12;12;
77794;PMS5003;66985;45.778;3.090;2023-02-08T05:19:22;10;10;
77794;PMS5003;66985;45.778;3.090;2023-02-08T05:21:47;8;8;
77794;PMS5003;66985;45.778;3.090;2023-02-08T05:24:13;8;8;
77794;PMS5003;66985;45.778;3.090;2023-02-08T05:26:38;11;9;
77794;PMS5003;66985;45.778;3.090;2023-02-08T05:29:04;10;9;
77794;PMS5003;66985;45.778;3.090;2023-02-08T05:31:29;11;11;
77794;PMS5003;66985;45.778;3.090;2023-02-08T05:33:55;9;9;
77794;PMS5003;66985;45.778;3.090;2023-02-08T05:36:21;10;10;
77794;PMS5003;66985;45.778;3.090;2023-02-08T05:38:46;10;9;
77794;PMS5003;66985;45.778;3.090;2023-02-08T05:41:11;9;9;
77794;PMS5003;66985;45.778;3.090;2023-02-08T05:43:37;9;9;
77794;PMS5003;66985;45.778;3.090;2023-02-08T05:46:02;12;12;
77794;PMS5003;66985;45.778;3.090;2023-02-08T05:48:29;12;10;
77794;PMS5003;66985;45.778;3.090;2023-02-08T05:50:53;9;9;
77794;PMS5003;66985;45.778;3.090;2023-02-08T05:53:19;8;8;
77794;PMS5003;66985;45.778;3.090;2023-02-08T05:55:44;9;9;
77794;PMS5003;66985;45.778;3.090;2023-02-08T05:58:09;10;10;
77794;PMS5003;66985;45.778;3.090;2023-02-08T06:00:35;8;8;
77794;PMS5003;66985;45.778;3.090;2023-02-08T06:03:00;9;9;
77794;PMS5003;66985;45.778;3.090;2023-02-08T06:05:26;8;8;
77794;PMS5003;66985;45.778;3.090;2023-02-08T06:07:51;9;9;
77794;PMS5003;66985;45.778;3.090;2023-02-08T06:10:17;10;10;
77794;PMS5003;66985;45.778;3.090;2023-02-08T06:12:42;10;10;
77794;PMS5003;66985;45.778;3.090;2023-02-08T06:15:08;11;10;
77794;PMS5003;66985;45.778;3.090;2023-02-08T06:17:33;11;8;
77794;PMS5003;66985;45.778;3.090;2023-02-08T06:19:58;11;9;
77794;PMS5003;66985;45.778;3.090;2023-02-08T06:22:24;10;10;
77794;PMS5003;66985;45.778;3.090;2023-02-08T06:24:49;9;9;
77794;PMS5003;66985;45.778;3.090;2023-02-08T06:27:15;8;8;
77794;PMS5003;66985;45.778;3.090;2023-02-08T06:29:40;11;11;
77794;PMS5003;66985;45.778;3.090;2023-02-08T06:32:06;12;11;
77794;PMS5003;66985;45.778;3.090;2023-02-08T06:34:31;8;8;
77794;PMS5003;66985;45.778;3.090;2023-02-08T06:36:57;10;10;
77794;PMS5003;66985;45.778;3.090;2023-02-08T06:39:22;15;10;
77794;PMS5003;66985;45.778;3.090;2023-02-08T06:41:47;8;8;
77794;PMS5003;66985;45.778;3.090;2023-02-08T06:44:13;11;11;
77794;PMS5003;66985;45.778;3.090;2023-02-08T06:46:38;12;11;
77794;PMS5003;66985;45.778;3.090;2023-02-08T06:49:04;10;10;
77794;PMS5003;66985;45.778;3.090;2023-02-08T06:51:29;11;10;
77794;PMS5003;66985;45.778;3.090;2023-02-08T06:53:55;12;10;
77794;PMS5003;66985;45.778;3.090;2023-02-08T06:56:20;10;10;
77794;PMS5003;66985;45.778;3.090;2023-02-08T06:58:46;12;10;
77794;PMS5003;66985;45.778;3.090;2023-02-08T07:01:11;10;10;
77794;PMS5003;66985;45.778;3.090;2023-02-08T07:03:37;10;10;
77794;PMS5003;66985;45.778;3.090;2023-02-08T07:06:02;10;10;
77794;PMS5003;66985;45.778;3.090;2023-02-08T07:08:28;32;30;
77794;PMS5003;66985;45.778;3.090;2023-02-08T07:10:53;41;41;
77794;PMS5003;66985;45.778;3.090;2023-02-08T07:13:19;50;47;
77794;PMS5003;66985;45.778;3.090;2023-02-08T07:15:44;34;34;
77794;PMS5003;66985;45.778;3.090;2023-02-08T07:18:10;34;32;
77794;PMS5003;66985;45.778;3.090;2023-02-08T07:20:35;29;28;
77794;PMS5003;66985;45.778;3.090;2023-02-08T07:23:00;33;30;
77794;PMS5003;66985;45.778;3.090;2023-02-08T07:25:26;27;27;
77794;PMS5003;66985;45.778;3.090;2023-02-08T07:27:51;26;24;
77794;PMS5003;66985;45.778;3.090;2023-02-08T07:30:16;26;25;
77794;PMS5003;66985;45.778;3.090;2023-02-08T07:32:41;26;25;
77794;PMS5003;66985;45.778;3.090;2023-02-08T07:35:07;26;25;
77794;PMS5003;66985;45.778;3.090;2023-02-08T07:37:32;24;24;
77794;PMS5003;66985;45.778;3.090;2023-02-08T07:39:57;23;23;
77794;PMS5003;66985;45.778;3.090;2023-02-08T07:42:23;24;21;
77794;PMS5003;66985;45.778;3.090;2023-02-08T07:44:48;22;21;
77794;PMS5003;66985;45.778;3.090;2023-02-08T07:47:14;23;22;
77794;PMS5003;66985;45.778;3.090;2023-02-08T07:49:40;23;21;
77794;PMS5003;66985;45.778;3.090;2023-02-08T07:52:05;23;21;
77794;PMS5003;66985;45.778;3.090;2023-02-08T07:54:31;20;20;
77794;PMS5003;66985;45.778;3.090;2023-02-08T07:56:56;20;20;
77794;PMS5003;66985;45.778;3.090;2023-02-08T07:59:21;18;18;
77794;PMS5003;66985;45.778;3.090;2023-02-08T08:01:47;20;20;
77794;PMS5003;66985;45.778;3.090;2023-02-08T08:04:12;19;18;
77794;PMS5003;66985;45.778;3.090;2023-02-08T08:06:38;22;19;
77794;PMS5003;66985;45.778;3.090;2023-02-08T08:09:03;20;17;
77794;PMS5003;66985;45.778;3.090;2023-02-08T08:11:28;13;13;
77794;PMS5003;66985;45.778;3.090;2023-02-08T08:13:54;20;18;
77794;PMS5003;66985;45.778;3.090;2023-02-08T08:16:20;18;18;
77794;PMS5003;66985;45.778;3.090;2023-02-08T08:18:45;18;18;
77794;PMS5003;66985;45.778;3.090;2023-02-08T08:21:11;19;16;
77794;PMS5003;66985;45.778;3.090;2023-02-08T08:23:37;17;17;
77794;PMS5003;66985;45.778;3.090;2023-02-08T08:26:06;19;19;
77794;PMS5003;66985;45.778;3.090;2023-02-08T08:28:28;19;19;
77794;PMS5003;66985;45.778;3.090;2023-02-08T08:30:53;15;15;
77794;PMS5003;66985;45.778;3.090;2023-02-08T08:33:19;20;20;
77794;PMS5003;66985;45.778;3.090;2023-02-08T08:35:44;19;19;
77794;PMS5003;66985;45.778;3.090;2023-02-08T08:38:09;18;16;
77794;PMS5003;66985;45.778;3.090;2023-02-08T08:40:35;18;18;
77794;PMS5003;66985;45.778;3.090;2023-02-08T08:43:00;16;16;
77794;PMS5003;66985;45.778;3.090;2023-02-08T08:45:26;16;16;
77794;PMS5003;66985;45.778;3.090;2023-02-08T08:47:51;16;14;
77794;PMS5003;66985;45.778;3.090;2023-02-08T08:50:17;14;14;
77794;PMS5003;66985;45.778;3.090;2023-02-08T08:52:42;13;13;
77794;PMS5003;66985;45.778;3.090;2023-02-08T08:55:08;12;12;
77794;PMS5003;66985;45.778;3.090;2023-02-08T08:57:33;17;16;
77794;PMS5003;66985;45.778;3.090;2023-02-08T08:59:58;15;15;
77794;PMS5003;66985;45.778;3.090;2023-02-08T09:02:24;15;15;
77794;PMS5003;66985;45.778;3.090;2023-02-08T09:04:49;16;15;
77794;PMS5003;66985;45.778;3.090;2023-02-08T09:07:15;16;16;
77794;PMS5003;66985;45.778;3.090;2023-02-08T09:09:40;14;14;
77794;PMS5003;66985;45.778;3.090;2023-02-08T09:12:06;13;13;
77794;PMS5003;66985;45.778;3.090;2023-02-08T09:14:31;16;15;
77794;PMS5003;66985;45.778;3.090;2023-02-08T09:16:56;17;17;
77794;PMS5003;66985;45.778;3.090;2023-02-08T09:19:21;16;15;
77794;PMS5003;66985;45.778;3.090;2023-02-08T09:21:47;16;16;
77794;PMS5003;66985;45.778;3.090;2023-02-08T09:24:12;14;14;
77794;PMS5003;66985;45.778;3.090;2023-02-08T09:26:38;16;15;
77794;PMS5003;66985;45.778;3.090;2023-02-08T09:29:03;17;17;
77794;PMS5003;66985;45.778;3.090;2023-02-08T09:31:29;15;15;
77794;PMS5003;66985;45.778;3.090;2023-02-08T09:33:55;14;14;
77794;PMS5003;66985;45.778;3.090;2023-02-08T09:36:20;20;20;
77794;PMS5003;66985;45.778;3.090;2023-02-08T09:38:45;17;16;
77794;PMS5003;66985;45.778;3.090;2023-02-08T09:41:15;14;14;
77794;PMS5003;66985;45.778;3.090;2023-02-08T09:43:37;14;14;
77794;PMS5003;66985;45.778;3.090;2023-02-08T09:46:02;16;16;
77794;PMS5003;66985;45.778;3.090;2023-02-08T09:48:28;16;15;
77794;PMS5003;66985;45.778;3.090;2023-02-08T09:50:54;20;16;
77794;PMS5003;66985;45.778;3.090;2023-02-08T09:53:19;16;16;
77794;PMS5003;66985;45.778;3.090;2023-02-08T09:55:45;20;17;
77794;PMS5003;66985;45.778;3.090;2023-02-08T09:58:14;19;18;
77794;PMS5003;66985;45.778;3.090;2023-02-08T10:00:36;15;15;
77794;PMS5003;66985;45.778;3.090;2023-02-08T10:03:00;15;15;
77794;PMS5003;66985;45.778;3.090;2023-02-08T10:05:25;16;15;
77794;PMS5003;66985;45.778;3.090;2023-02-08T10:07:51;16;16;
77794;PMS5003;66985;45.778;3.090;2023-02-08T10:10:18;19;19;
77794;PMS5003;66985;45.778;3.090;2023-02-08T10:12:42;16;16;
77794;PMS5003;66985;45.778;3.090;2023-02-08T10:15:10;17;17;
77794;PMS5003;66985;45.778;3.090;2023-02-08T10:17:36;19;19;
77794;PMS5003;66985;45.778;3.090;2023-02-08T10:20:00;19;18;
77794;PMS5003;66985;45.778;3.090;2023-02-08T10:22:26;19;16;
77794;PMS5003;66985;45.778;3.090;2023-02-08T10:24:53;20;19;
77794;PMS5003;66985;45.778;3.090;2023-02-08T10:27:14;18;17;
77794;PMS5003;66985;45.778;3.090;2023-02-08T10:29:45;18;17;
77794;PMS5003;66985;45.778;3.090;2023-02-08T10:32:10;16;16;
77794;PMS5003;66985;45.778;3.090;2023-02-08T10:34:34;22;16;
77794;PMS5003;66985;45.778;3.090;2023-02-08T10:36:56;17;16;
77794;PMS5003;66985;45.778;3.090;2023-02-08T10:39:22;15;15;
77794;PMS5003;66985;45.778;3.090;2023-02-08T10:41:47;15;14;
77794;PMS5003;66985;45.778;3.090;2023-02-08T10:44:15;19;17;
77794;PMS5003;66985;45.778;3.090;2023-02-08T10:46:39;15;15;
77794;PMS5003;66985;45.778;3.090;2023-02-08T10:49:05;21;18;
77794;PMS5003;66985;45.778;3.090;2023-02-08T10:51:29;16;14;
77794;PMS5003;66985;45.778;3.090;2023-02-08T10:53:54;16;16;
77794;PMS5003;66985;45.778;3.090;2023-02-08T10:56:25;18;17;
77794;PMS5003;66985;45.778;3.090;2023-02-08T10:58:45;19;19;
77794;PMS5003;66985;45.778;3.090;2023-02-08T11:01:11;15;15;
77794;PMS5003;66985;45.778;3.090;2023-02-08T11:03:37;18;18;
77794;PMS5003;66985;45.778;3.090;2023-02-08T11:06:02;18;18;
77794;PMS5003;66985;45.778;3.090;2023-02-08T11:08:27;22;21;
77794;PMS5003;66985;45.778;3.090;2023-02-08T11:10:55;17;17;
77794;PMS5003;66985;45.778;3.090;2023-02-08T11:13:18;17;17;
77794;PMS5003;66985;45.778;3.090;2023-02-08T11:15:45;20;20;
77794;PMS5003;66985;45.778;3.090;2023-02-08T11:18:14;21;20;
77794;PMS5003;66985;45.778;3.090;2023-02-08T11:20:35;21;21;
77794;PMS5003;66985;45.778;3.090;2023-02-08T11:23:01;23;20;
77794;PMS5003;66985;45.778;3.090;2023-02-08T11:25:30;17;17;
77794;PMS5003;66985;45.778;3.090;2023-02-08T11:27:51;23;21;
77794;PMS5003;66985;45.778;3.090;2023-02-08T11:30:19;21;19;
77794;PMS5003;66985;45.778;3.090;2023-02-08T11:32:42;40;39;
77794;PMS5003;66985;45.778;3.090;2023-02-08T11:35:10;41;36;
77794;PMS5003;66985;45.778;3.090;2023-02-08T11:37:31;59;57;
77794;PMS5003;66985;45.778;3.090;2023-02-08T11:39:57;44;42;
77794;PMS5003;66985;45.778;3.090;2023-02-08T11:42:23;45;43;
77794;PMS5003;66985;45.778;3.090;2023-02-08T11:44:48;43;40;
77794;PMS5003;66985;45.778;3.090;2023-02-08T11:47:14;39;39;
77794;PMS5003;66985;45.778;3.090;2023-02-08T11:49:39;41;39;
77794;PMS5003;66985;45.778;3.090;2023-02-08T11:52:05;40;34;
77794;PMS5003;66985;45.778;3.090;2023-02-08T11:54:31;34;33;
77794;PMS5003;66985;45.778;3.090;2023-02-08T11:57:00;31;30;
77794;PMS5003;66985;45.778;3.090;2023-02-08T11:59:21;28;24;
77794;PMS5003;66985;45.778;3.090;2023-02-08T12:01:46;28;26;
77794;PMS5003;66985;45.778;3.090;2023-02-08T12:04:12;26;25;
77794;PMS5003;66985;45.778;3.090;2023-02-08T12:06:43;27;27;
77794;PMS5003;66985;45.778;3.090;2023-02-08T12:09:06;23;23;
77794;PMS5003;66985;45.778;3.090;2023-02-08T12:11:31;30;26;
77794;PMS5003;66985;45.778;3.090;2023-02-08T12:14:01;21;21;
77794;PMS5003;66985;45.778;3.090;2023-02-08T12:16:25;26;24;
77794;PMS5003;66985;45.778;3.090;2023-02-08T12:18:49;26;23;
77794;PMS5003;66985;45.778;3.090;2023-02-08T12:21:11;27;24;
77794;PMS5003;66985;45.778;3.090;2023-02-08T12:23:40;34;30;
77794;PMS5003;66985;45.778;3.090;2023-02-08T12:26:04;23;23;
77794;PMS5003;66985;45.778;3.090;2023-02-08T12:28:30;24;21;
77794;PMS5003;66985;45.778;3.090;2023-02-08T12:30:55;21;21;
77794;PMS5003;66985;45.778;3.090;2023-02-08T12:33:22;18;18;
77794;PMS5003;66985;45.778;3.090;2023-02-08T12:35:46;20;19;
77794;PMS5003;66985;45.778;3.090;2023-02-08T12:38:11;18;18;
77794;PMS5003;66985;45.778;3.090;2023-02-08T12:40:38;20;15;
77794;PMS5003;66985;45.778;3.090;2023-02-08T12:43:02;18;17;
77794;PMS5003;66985;45.778;3.090;2023-02-08T12:45:37;14;14;
77794;PMS5003;66985;45.778;3.090;2023-02-08T12:47:56;20;17;
77794;PMS5003;66985;45.778;3.090;2023-02-08T12:50:17;17;16;
77794;PMS5003;66985;45.778;3.090;2023-02-08T12:52:42;20;19;
77794;PMS5003;66985;45.778;3.090;2023-02-08T12:55:12;15;15;
77794;PMS5003;66985;45.778;3.090;2023-02-08T12:57:33;16;16;
77794;PMS5003;66985;45.778;3.090;2023-02-08T12:59:59;16;15;
77794;PMS5003;66985;45.778;3.090;2023-02-08T13:02:25;19;17;
77794;PMS5003;66985;45.778;3.090;2023-02-08T13:04:50;17;15;
77794;PMS5003;66985;45.778;3.090;2023-02-08T13:07:17;17;16;
77794;PMS5003;66985;45.778;3.090;2023-02-08T13:09:42;18;14;
77794;PMS5003;66985;45.778;3.090;2023-02-08T13:12:07;17;14;
77794;PMS5003;66985;45.778;3.090;2023-02-08T13:14:32;17;17;
77794;PMS5003;66985;45.778;3.090;2023-02-08T13:16:58;16;15;
77794;PMS5003;66985;45.778;3.090;2023-02-08T13:19:23;19;18;
77794;PMS5003;66985;45.778;3.090;2023-02-08T13:21:47;17;16;
77794;PMS5003;66985;45.778;3.090;2023-02-08T13:24:14;14;13;
77794;PMS5003;66985;45.778;3.090;2023-02-08T13:26:37;15;15;
77794;PMS5003;66985;45.778;3.090;2023-02-08T13:29:03;14;13;
77794;PMS5003;66985;45.778;3.090;2023-02-08T13:31:29;16;16;
77794;PMS5003;66985;45.778;3.090;2023-02-08T13:33:55;15;15;
77794;PMS5003;66985;45.778;3.090;2023-02-08T13:36:20;15;15;
77794;PMS5003;66985;45.778;3.090;2023-02-08T13:38:45;10;10;
77794;PMS5003;66985;45.778;3.090;2023-02-08T13:41:13;14;13;
77794;PMS5003;66985;45.778;3.090;2023-02-08T13:43:37;18;17;
77794;PMS5003;66985;45.778;3.090;2023-02-08T13:46:02;17;17;
77794;PMS5003;66985;45.778;3.090;2023-02-08T13:48:27;17;16;
77794;PMS5003;66985;45.778;3.090;2023-02-08T13:50:53;13;10;
77794;PMS5003;66985;45.778;3.090;2023-02-08T13:53:41;17;16;
77794;PMS5003;66985;45.778;3.090;2023-02-08T13:55:56;13;13;
77794;PMS5003;66985;45.778;3.090;2023-02-08T13:58:25;17;14;
77794;PMS5003;66985;45.778;3.090;2023-02-08T14:00:35;14;14;
77794;PMS5003;66985;45.778;3.090;2023-02-08T14:03:01;16;14;
77794;PMS5003;66985;45.778;3.090;2023-02-08T14:05:42;14;13;
77794;PMS5003;66985;45.778;3.090;2023-02-08T14:07:51;13;11;
77794;PMS5003;66985;45.778;3.090;2023-02-08T14:10:20;12;12;
77794;PMS5003;66985;45.778;3.090;2023-02-08T14:12:43;12;11;
77794;PMS5003;66985;45.778;3.090;2023-02-08T14:15:22;14;13;
77794;PMS5003;66985;45.778;3.090;2023-02-08T14:17:33;13;13;
77794;PMS5003;66985;45.778;3.090;2023-02-08T14:19:59;12;11;
77794;PMS5003;66985;45.778;3.090;2023-02-08T14:22:24;16;16;
77794;PMS5003;66985;45.778;3.090;2023-02-08T14:24:58;15;15;
77794;PMS5003;66985;45.778;3.090;2023-02-08T14:27:17;16;15;
77794;PMS5003;66985;45.778;3.090;2023-02-08T14:29:40;16;14;
77794;PMS5003;66985;45.778;3.090;2023-02-08T14:32:05;14;13;
77794;PMS5003;66985;45.778;3.090;2023-02-08T14:34:30;15;15;
77794;PMS5003;66985;45.778;3.090;2023-02-08T14:36:57;13;13;
77794;PMS5003;66985;45.778;3.090;2023-02-08T14:39:22;16;14;
77794;PMS5003;66985;45.778;3.090;2023-02-08T14:41:47;11;11;
77794;PMS5003;66985;45.778;3.090;2023-02-08T14:44:44;17;14;
77794;PMS5003;66985;45.778;3.090;2023-02-08T14:46:41;17;16;
77794;PMS5003;66985;45.778;3.090;2023-02-08T14:49:02;13;12;
77794;PMS5003;66985;45.778;3.090;2023-02-08T14:51:29;15;14;
77794;PMS5003;66985;45.778;3.090;2023-02-08T14:53:54;14;14;
77794;PMS5003;66985;45.778;3.090;2023-02-08T14:56:19;15;15;
77794;PMS5003;66985;45.778;3.090;2023-02-08T14:58:45;19;18;
77794;PMS5003;66985;45.778;3.090;2023-02-08T15:01:12;18;15;
77794;PMS5003;66985;45.778;3.090;2023-02-08T15:03:36;18;15;
77794;PMS5003;66985;45.778;3.090;2023-02-08T15:06:22;18;15;
77794;PMS5003;66985;45.778;3.090;2023-02-08T15:08:26;15;13;
77794;PMS5003;66985;45.778;3.090;2023-02-08T15:10:52;16;16;
77794;PMS5003;66985;45.778;3.090;2023-02-08T15:13:18;16;16;
77794;PMS5003;66985;45.778;3.090;2023-02-08T15:15:43;13;12;
77794;PMS5003;66985;45.778;3.090;2023-02-08T15:18:14;18;16;
77794;PMS5003;66985;45.778;3.090;2023-02-08T15:20:33;14;13;
77794;PMS5003;66985;45.778;3.090;2023-02-08T15:22:59;14;14;
77794;PMS5003;66985;45.778;3.090;2023-02-08T15:25:24;12;12;
77794;PMS5003;66985;45.778;3.090;2023-02-08T15:27:50;20;18;
77794;PMS5003;66985;45.778;3.090;2023-02-08T15:30:21;16;14;
77794;PMS5003;66985;45.778;3.090;2023-02-08T15:32:39;21;16;
77794;PMS5003;66985;45.778;3.090;2023-02-08T15:35:05;14;14;
77794;PMS5003;66985;45.778;3.090;2023-02-08T15:37:31;17;15;
77794;PMS5003;66985;45.778;3.090;2023-02-08T15:39:56;18;15;
77794;PMS5003;66985;45.778;3.090;2023-02-08T15:42:22;18;17;
77794;PMS5003;66985;45.778;3.090;2023-02-08T15:44:47;20;16;
77794;PMS5003;66985;45.778;3.090;2023-02-08T15:47:13;15;15;
77794;PMS5003;66985;45.778;3.090;2023-02-08T15:49:39;16;13;
77794;PMS5003;66985;45.778;3.090;2023-02-08T15:52:04;17;16;
77794;PMS5003;66985;45.778;3.090;2023-02-08T15:54:29;14;14;
77794;PMS5003;66985;45.778;3.090;2023-02-08T15:56:55;15;15;
77794;PMS5003;66985;45.778;3.090;2023-02-08T15:59:20;12;12;
77794;PMS5003;66985;45.778;3.090;2023-02-08T16:01:45;17;15;
77794;PMS5003;66985;45.778;3.090;2023-02-08T16:04:11;13;12;
77794;PMS5003;66985;45.778;3.090;2023-02-08T16:06:37;13;13;
77794;PMS5003;66985;45.778;3.090;2023-02-08T16:09:02;15;13;
77794;PMS5003;66985;45.778;3.090;2023-02-08T16:11:27;12;12;